sensor_id;sensor_type;location;lat;lon;timestamp;P1;durP1;ratioP1;P2;durP2;ratioP2
85035;SDS011;75357;49.780;9.448;2024-01-27T00:01:20;20.00;;;7.37;;
85035;SDS011;75357;49.780;9.448;2024-01-27T00:03:49;63.83;;;26.03;;
85035;SDS011;75357;49.780;9.448;2024-01-27T00:06:20;28.60;;;11.97;;
85035;SDS011;75357;49.780;9.448;2024-01-27T00:08:49;31.33;;;13.20;;
85035;SDS011;75357;49.780;9.448;2024-01-27T00:11:17;9.50;;;4.00;;
85035;SDS011;75357;49.780;9.448;2024-01-27T00:13:50;44.07;;;16.37;;
85035;SDS011;75357;49.780;9.448;2024-01-27T00:16:19;21.63;;;8.87;;
85035;SDS011;75357;49.780;9.448;2024-01-27T00:18:48;36.57;;;13.80;;
85035;SDS011;75357;49.780;9.448;2024-01-27T00:21:16;35.77;;;15.53;;
85035;SDS011;75357;49.780;9.448;2024-01-27T00:23:45;10.87;;;4.43;;
85035;SDS011;75357;49.780;9.448;2024-01-27T00:26:14;18.90;;;7.57;;
85035;SDS011;75357;49.780;9.448;2024-01-27T00:28:42;22.80;;;11.47;;
85035;SDS011;75357;49.780;9.448;2024-01-27T00:31:12;16.90;;;9.70;;
85035;SDS011;75357;49.780;9.448;2024-01-27T00:33:41;8.50;;;3.83;;
85035;SDS011;75357;49.780;9.448;2024-01-27T00:36:09;9.37;;;3.30;;
85035;SDS011;75357;49.780;9.448;2024-01-27T00:38:38;6.63;;;2.90;;
85035;SDS011;75357;49.780;9.448;2024-01-27T00:41:06;8.57;;;3.77;;
85035;SDS011;75357;49.780;9.448;2024-01-27T00:43:36;6.70;;;3.17;;
85035;SDS011;75357;49.780;9.448;2024-01-27T00:46:04;8.47;;;3.07;;
85035;SDS011;75357;49.780;9.448;2024-01-27T00:48:34;8.50;;;3.03;;
85035;SDS011;75357;49.780;9.448;2024-01-27T00:51:03;6.83;;;3.40;;
85035;SDS011;75357;49.780;9.448;2024-01-27T00:53:32;8.07;;;4.03;;
85035;SDS011;75357;49.780;9.448;2024-01-27T00:56:00;10.13;;;3.80;;
85035;SDS011;75357;49.780;9.448;2024-01-27T00:58:29;8.30;;;3.63;;
85035;SDS011;75357;49.780;9.448;2024-01-27T01:00:58;10.03;;;3.33;;
85035;SDS011;75357;49.780;9.448;2024-01-27T01:03:26;9.53;;;3.40;;
85035;SDS011;75357;49.780;9.448;2024-01-27T01:05:56;7.93;;;3.50;;
85035;SDS011;75357;49.780;9.448;2024-01-27T01:08:25;10.40;;;3.63;;
85035;SDS011;75357;49.780;9.448;2024-01-27T01:10:54;7.37;;;3.33;;
85035;SDS011;75357;49.780;9.448;2024-01-27T01:13:23;9.03;;;3.20;;
85035;SDS011;75357;49.780;9.448;2024-01-27T01:15:52;7.67;;;3.00;;
85035;SDS011;75357;49.780;9.448;2024-01-27T01:18:21;6.10;;;2.87;;
85035;SDS011;75357;49.780;9.448;2024-01-27T01:20:50;9.97;;;3.33;;
85035;SDS011;75357;49.780;9.448;2024-01-27T01:23:20;7.37;;;3.20;;
85035;SDS011;75357;49.780;9.448;2024-01-27T01:25:49;7.43;;;3.30;;
85035;SDS011;75357;49.780;9.448;2024-01-27T01:28:16;8.00;;;3.33;;
85035;SDS011;75357;49.780;9.448;2024-01-27T01:30:44;6.27;;;3.37;;
85035;SDS011;75357;49.780;9.448;2024-01-27T01:33:13;6.77;;;3.07;;
85035;SDS011;75357;49.780;9.448;2024-01-27T01:35:42;7.20;;;3.87;;
85035;SDS011;75357;49.780;9.448;2024-01-27T01:38:11;11.43;;;3.43;;
85035;SDS011;75357;49.780;9.448;2024-01-27T01:40:41;9.20;;;3.47;;
85035;SDS011;75357;49.780;9.448;2024-01-27T01:43:10;6.90;;;3.40;;
85035;SDS011;75357;49.780;9.448;2024-01-27T01:45:39;8.97;;;3.30;;
85035;SDS011;75357;49.780;9.448;2024-01-27T01:48:08;7.13;;;3.30;;
85035;SDS011;75357;49.780;9.448;2024-01-27T01:50:36;8.70;;;3.53;;
85035;SDS011;75357;49.780;9.448;2024-01-27T01:53:05;8.57;;;3.30;;
85035;SDS011;75357;49.780;9.448;2024-01-27T01:55:34;9.73;;;3.37;;
85035;SDS011;75357;49.780;9.448;2024-01-27T01:58:04;8.00;;;2.97;;
85035;SDS011;75357;49.780;9.448;2024-01-27T02:00:36;8.23;;;3.00;;
85035;SDS011;75357;49.780;9.448;2024-01-27T02:03:04;7.90;;;3.00;;
85035;SDS011;75357;49.780;9.448;2024-01-27T02:05:37;7.23;;;3.03;;
85035;SDS011;75357;49.780;9.448;2024-01-27T02:08:06;6.57;;;3.10;;
85035;SDS011;75357;49.780;9.448;2024-01-27T02:10:35;8.30;;;3.20;;
85035;SDS011;75357;49.780;9.448;2024-01-27T02:13:12;10.20;;;3.30;;
85035;SDS011;75357;49.780;9.448;2024-01-27T02:15:46;8.00;;;3.60;;
85035;SDS011;75357;49.780;9.448;2024-01-27T02:18:15;6.93;;;3.50;;
85035;SDS011;75357;49.780;9.448;2024-01-27T02:20:45;7.10;;;3.10;;
85035;SDS011;75357;49.780;9.448;2024-01-27T02:23:14;6.33;;;3.33;;
85035;SDS011;75357;49.780;9.448;2024-01-27T02:25:44;10.47;;;3.30;;
85035;SDS011;75357;49.780;9.448;2024-01-27T02:28:12;6.27;;;3.27;;
85035;SDS011;75357;49.780;9.448;2024-01-27T02:30:41;7.43;;;3.40;;
85035;SDS011;75357;49.780;9.448;2024-01-27T02:33:09;8.10;;;3.53;;
85035;SDS011;75357;49.780;9.448;2024-01-27T02:35:38;11.47;;;3.97;;
85035;SDS011;75357;49.780;9.448;2024-01-27T02:38:06;9.63;;;3.67;;
85035;SDS011;75357;49.780;9.448;2024-01-27T02:40:35;6.97;;;3.23;;
85035;SDS011;75357;49.780;9.448;2024-01-27T02:43:05;8.10;;;3.33;;
85035;SDS011;75357;49.780;9.448;2024-01-27T02:45:33;6.13;;;3.43;;
85035;SDS011;75357;49.780;9.448;2024-01-27T02:48:02;7.90;;;3.50;;
85035;SDS011;75357;49.780;9.448;2024-01-27T02:50:31;9.87;;;3.97;;
85035;SDS011;75357;49.780;9.448;2024-01-27T02:52:59;9.00;;;4.07;;
85035;SDS011;75357;49.780;9.448;2024-01-27T02:55:29;7.10;;;3.57;;
85035;SDS011;75357;49.780;9.448;2024-01-27T02:57:58;8.80;;;3.53;;
85035;SDS011;75357;49.780;9.448;2024-01-27T03:00:30;8.10;;;3.77;;
85035;SDS011;75357;49.780;9.448;2024-01-27T03:02:59;8.77;;;3.80;;
85035;SDS011;75357;49.780;9.448;2024-01-27T03:05:29;9.17;;;3.83;;
85035;SDS011;75357;49.780;9.448;2024-01-27T03:07:58;9.37;;;3.50;;
85035;SDS011;75357;49.780;9.448;2024-01-27T03:10:26;7.10;;;3.93;;
85035;SDS011;75357;49.780;9.448;2024-01-27T03:12:55;9.87;;;3.77;;
85035;SDS011;75357;49.780;9.448;2024-01-27T03:15:24;7.97;;;3.37;;
85035;SDS011;75357;49.780;9.448;2024-01-27T03:17:54;10.17;;;3.40;;
85035;SDS011;75357;49.780;9.448;2024-01-27T03:20:22;7.83;;;3.40;;
85035;SDS011;75357;49.780;9.448;2024-01-27T03:22:51;8.97;;;3.37;;
85035;SDS011;75357;49.780;9.448;2024-01-27T03:25:19;9.73;;;4.00;;
85035;SDS011;75357;49.780;9.448;2024-01-27T03:27:47;10.50;;;3.90;;
85035;SDS011;75357;49.780;9.448;2024-01-27T03:30:16;8.63;;;3.70;;
85035;SDS011;75357;49.780;9.448;2024-01-27T03:32:45;8.17;;;3.83;;
85035;SDS011;75357;49.780;9.448;2024-01-27T03:35:15;7.27;;;3.20;;
85035;SDS011;75357;49.780;9.448;2024-01-27T03:37:44;8.03;;;3.50;;
85035;SDS011;75357;49.780;9.448;2024-01-27T03:40:13;8.20;;;3.80;;
85035;SDS011;75357;49.780;9.448;2024-01-27T03:42:41;6.87;;;3.60;;
85035;SDS011;75357;49.780;9.448;2024-01-27T03:45:10;7.57;;;3.33;;
85035;SDS011;75357;49.780;9.448;2024-01-27T03:47:39;7.53;;;3.50;;
85035;SDS011;75357;49.780;9.448;2024-01-27T03:50:08;8.47;;;3.20;;
85035;SDS011;75357;49.780;9.448;2024-01-27T03:52:39;8.07;;;3.73;;
85035;SDS011;75357;49.780;9.448;2024-01-27T03:55:08;9.60;;;3.60;;
85035;SDS011;75357;49.780;9.448;2024-01-27T03:57:37;10.53;;;4.23;;
85035;SDS011;75357;49.780;9.448;2024-01-27T04:00:06;9.37;;;4.30;;
85035;SDS011;75357;49.780;9.448;2024-01-27T04:02:37;8.43;;;4.70;;
85035;SDS011;75357;49.780;9.448;2024-01-27T04:05:05;10.00;;;4.40;;
85035;SDS011;75357;49.780;9.448;2024-01-27T04:07:34;9.20;;;4.23;;
85035;SDS011;75357;49.780;9.448;2024-01-27T04:10:04;9.70;;;4.27;;
85035;SDS011;75357;49.780;9.448;2024-01-27T04:12:34;10.23;;;4.40;;
85035;SDS011;75357;49.780;9.448;2024-01-27T04:15:03;10.77;;;4.27;;
85035;SDS011;75357;49.780;9.448;2024-01-27T04:17:33;10.20;;;4.13;;
85035;SDS011;75357;49.780;9.448;2024-01-27T04:20:02;9.47;;;4.53;;
85035;SDS011;75357;49.780;9.448;2024-01-27T04:22:31;8.33;;;4.27;;
85035;SDS011;75357;49.780;9.448;2024-01-27T04:24:59;10.47;;;4.33;;
85035;SDS011;75357;49.780;9.448;2024-01-27T04:27:29;6.77;;;3.90;;
85035;SDS011;75357;49.780;9.448;2024-01-27T04:29:58;9.77;;;4.00;;
85035;SDS011;75357;49.780;9.448;2024-01-27T04:32:29;9.00;;;4.43;;
85035;SDS011;75357;49.780;9.448;2024-01-27T04:34:57;7.70;;;3.80;;
85035;SDS011;75357;49.780;9.448;2024-01-27T04:37:25;15.07;;;4.60;;
85035;SDS011;75357;49.780;9.448;2024-01-27T04:39:54;6.57;;;3.93;;
85035;SDS011;75357;49.780;9.448;2024-01-27T04:42:22;8.80;;;4.00;;
85035;SDS011;75357;49.780;9.448;2024-01-27T04:44:52;11.07;;;4.10;;
85035;SDS011;75357;49.780;9.448;2024-01-27T04:47:21;9.37;;;4.40;;
85035;SDS011;75357;49.780;9.448;2024-01-27T04:49:49;7.50;;;3.87;;
85035;SDS011;75357;49.780;9.448;2024-01-27T04:52:18;9.17;;;4.00;;
85035;SDS011;75357;49.780;9.448;2024-01-27T04:54:47;7.40;;;3.80;;
85035;SDS011;75357;49.780;9.448;2024-01-27T04:57:16;10.00;;;4.13;;
85035;SDS011;75357;49.780;9.448;2024-01-27T04:59:46;10.20;;;3.90;;
85035;SDS011;75357;49.780;9.448;2024-01-27T05:02:16;7.87;;;4.10;;
85035;SDS011;75357;49.780;9.448;2024-01-27T05:04:45;9.10;;;3.87;;
85035;SDS011;75357;49.780;9.448;2024-01-27T05:07:14;7.77;;;4.37;;
85035;SDS011;75357;49.780;9.448;2024-01-27T05:09:42;10.63;;;4.30;;
85035;SDS011;75357;49.780;9.448;2024-01-27T05:12:11;9.80;;;4.73;;
85035;SDS011;75357;49.780;9.448;2024-01-27T05:14:42;11.17;;;5.10;;
85035;SDS011;75357;49.780;9.448;2024-01-27T05:17:11;12.27;;;5.20;;
85035;SDS011;75357;49.780;9.448;2024-01-27T05:19:41;11.50;;;4.43;;
85035;SDS011;75357;49.780;9.448;2024-01-27T05:22:10;11.30;;;4.90;;
85035;SDS011;75357;49.780;9.448;2024-01-27T05:24:38;10.47;;;4.87;;
85035;SDS011;75357;49.780;9.448;2024-01-27T05:27:07;9.60;;;4.77;;
85035;SDS011;75357;49.780;9.448;2024-01-27T05:29:36;13.87;;;5.33;;
85035;SDS011;75357;49.780;9.448;2024-01-27T05:32:05;10.17;;;5.60;;
85035;SDS011;75357;49.780;9.448;2024-01-27T05:34:34;12.77;;;6.13;;
85035;SDS011;75357;49.780;9.448;2024-01-27T05:37:04;10.57;;;5.60;;
85035;SDS011;75357;49.780;9.448;2024-01-27T05:39:33;12.73;;;5.33;;
85035;SDS011;75357;49.780;9.448;2024-01-27T05:42:03;16.50;;;6.67;;
85035;SDS011;75357;49.780;9.448;2024-01-27T05:44:32;16.40;;;9.07;;
85035;SDS011;75357;49.780;9.448;2024-01-27T05:47:00;20.60;;;8.20;;
85035;SDS011;75357;49.780;9.448;2024-01-27T05:49:29;18.20;;;9.60;;
85035;SDS011;75357;49.780;9.448;2024-01-27T05:51:58;14.73;;;8.10;;
85035;SDS011;75357;49.780;9.448;2024-01-27T05:54:29;9.13;;;4.93;;
85035;SDS011;75357;49.780;9.448;2024-01-27T05:56:57;11.00;;;5.50;;
85035;SDS011;75357;49.780;9.448;2024-01-27T05:59:26;8.20;;;3.93;;
85035;SDS011;75357;49.780;9.448;2024-01-27T06:01:55;9.40;;;4.30;;
85035;SDS011;75357;49.780;9.448;2024-01-27T06:04:24;10.77;;;4.30;;
85035;SDS011;75357;49.780;9.448;2024-01-27T06:06:52;9.53;;;3.73;;
85035;SDS011;75357;49.780;9.448;2024-01-27T06:09:21;9.30;;;4.20;;
85035;SDS011;75357;49.780;9.448;2024-01-27T06:11:52;17.20;;;7.33;;
85035;SDS011;75357;49.780;9.448;2024-01-27T06:14:21;13.93;;;6.97;;
85035;SDS011;75357;49.780;9.448;2024-01-27T06:16:50;14.77;;;5.87;;
85035;SDS011;75357;49.780;9.448;2024-01-27T06:19:18;11.20;;;6.30;;
85035;SDS011;75357;49.780;9.448;2024-01-27T06:21:47;16.30;;;6.90;;
85035;SDS011;75357;49.780;9.448;2024-01-27T06:24:16;13.73;;;6.70;;
85035;SDS011;75357;49.780;9.448;2024-01-27T06:26:44;14.57;;;5.23;;
85035;SDS011;75357;49.780;9.448;2024-01-27T06:29:14;12.47;;;5.50;;
85035;SDS011;75357;49.780;9.448;2024-01-27T06:31:45;11.60;;;5.70;;
85035;SDS011;75357;49.780;9.448;2024-01-27T06:34:13;9.50;;;5.30;;
85035;SDS011;75357;49.780;9.448;2024-01-27T06:36:42;8.90;;;5.40;;
85035;SDS011;75357;49.780;9.448;2024-01-27T06:39:10;12.43;;;5.37;;
85035;SDS011;75357;49.780;9.448;2024-01-27T06:41:39;13.90;;;5.53;;
85035;SDS011;75357;49.780;9.448;2024-01-27T06:44:07;11.73;;;5.23;;
85035;SDS011;75357;49.780;9.448;2024-01-27T06:46:37;13.37;;;5.20;;
85035;SDS011;75357;49.780;9.448;2024-01-27T06:49:06;9.63;;;5.20;;
85035;SDS011;75357;49.780;9.448;2024-01-27T06:51:35;13.77;;;5.07;;
85035;SDS011;75357;49.780;9.448;2024-01-27T06:54:03;8.33;;;4.67;;
85035;SDS011;75357;49.780;9.448;2024-01-27T06:56:32;10.23;;;5.33;;
85035;SDS011;75357;49.780;9.448;2024-01-27T06:59:00;12.23;;;5.87;;
85035;SDS011;75357;49.780;9.448;2024-01-27T07:01:29;12.20;;;5.87;;
85035;SDS011;75357;49.780;9.448;2024-01-27T07:03:59;15.43;;;8.30;;
85035;SDS011;75357;49.780;9.448;2024-01-27T07:06:29;11.93;;;8.17;;
85035;SDS011;75357;49.780;9.448;2024-01-27T07:08:58;15.70;;;7.80;;
85035;SDS011;75357;49.780;9.448;2024-01-27T07:11:30;11.73;;;5.37;;
85035;SDS011;75357;49.780;9.448;2024-01-27T07:13:58;10.30;;;5.33;;
85035;SDS011;75357;49.780;9.448;2024-01-27T07:16:30;11.33;;;5.37;;
85035;SDS011;75357;49.780;9.448;2024-01-27T07:19:00;15.53;;;6.10;;
85035;SDS011;75357;49.780;9.448;2024-01-27T07:21:29;12.07;;;5.67;;
85035;SDS011;75357;49.780;9.448;2024-01-27T07:23:58;12.47;;;5.93;;
85035;SDS011;75357;49.780;9.448;2024-01-27T07:26:28;12.83;;;6.53;;
85035;SDS011;75357;49.780;9.448;2024-01-27T07:28:56;14.17;;;6.07;;
85035;SDS011;75357;49.780;9.448;2024-01-27T07:31:25;13.50;;;6.37;;
85035;SDS011;75357;49.780;9.448;2024-01-27T07:33:54;14.27;;;6.20;;
85035;SDS011;75357;49.780;9.448;2024-01-27T07:36:25;17.80;;;10.73;;
85035;SDS011;75357;49.780;9.448;2024-01-27T07:38:59;16.87;;;8.10;;
85035;SDS011;75357;49.780;9.448;2024-01-27T07:41:29;15.60;;;7.27;;
85035;SDS011;75357;49.780;9.448;2024-01-27T07:44:06;13.27;;;6.33;;
85035;SDS011;75357;49.780;9.448;2024-01-27T07:46:35;12.70;;;6.33;;
85035;SDS011;75357;49.780;9.448;2024-01-27T07:49:03;9.60;;;6.30;;
85035;SDS011;75357;49.780;9.448;2024-01-27T07:51:34;11.90;;;6.60;;
85035;SDS011;75357;49.780;9.448;2024-01-27T07:54:04;14.60;;;6.90;;
85035;SDS011;75357;49.780;9.448;2024-01-27T07:56:32;16.17;;;6.67;;
85035;SDS011;75357;49.780;9.448;2024-01-27T07:59:02;19.17;;;9.63;;
85035;SDS011;75357;49.780;9.448;2024-01-27T08:01:31;28.30;;;13.63;;
85035;SDS011;75357;49.780;9.448;2024-01-27T08:03:59;31.23;;;13.80;;
85035;SDS011;75357;49.780;9.448;2024-01-27T08:06:30;15.33;;;7.83;;
85035;SDS011;75357;49.780;9.448;2024-01-27T08:09:00;52.00;;;22.87;;
85035;SDS011;75357;49.780;9.448;2024-01-27T08:11:30;24.07;;;12.10;;
85035;SDS011;75357;49.780;9.448;2024-01-27T08:14:00;17.73;;;8.53;;
85035;SDS011;75357;49.780;9.448;2024-01-27T08:16:28;19.87;;;9.03;;
85035;SDS011;75357;49.780;9.448;2024-01-27T08:18:57;28.00;;;17.07;;
85035;SDS011;75357;49.780;9.448;2024-01-27T08:21:26;23.10;;;12.17;;
85035;SDS011;75357;49.780;9.448;2024-01-27T08:23:56;21.10;;;10.90;;
85035;SDS011;75357;49.780;9.448;2024-01-27T08:26:26;22.47;;;12.73;;
85035;SDS011;75357;49.780;9.448;2024-01-27T08:28:56;37.50;;;19.27;;
85035;SDS011;75357;49.780;9.448;2024-01-27T08:31:25;36.30;;;19.87;;
85035;SDS011;75357;49.780;9.448;2024-01-27T08:33:57;57.03;;;29.37;;
85035;SDS011;75357;49.780;9.448;2024-01-27T08:36:26;40.87;;;21.37;;
85035;SDS011;75357;49.780;9.448;2024-01-27T08:38:55;30.17;;;17.40;;
85035;SDS011;75357;49.780;9.448;2024-01-27T08:41:24;30.30;;;18.33;;
85035;SDS011;75357;49.780;9.448;2024-01-27T08:43:57;28.13;;;17.13;;
85035;SDS011;75357;49.780;9.448;2024-01-27T08:46:26;25.03;;;13.43;;
85035;SDS011;75357;49.780;9.448;2024-01-27T08:48:55;21.17;;;12.23;;
85035;SDS011;75357;49.780;9.448;2024-01-27T08:51:23;22.73;;;11.47;;
85035;SDS011;75357;49.780;9.448;2024-01-27T08:53:52;19.33;;;11.27;;
85035;SDS011;75357;49.780;9.448;2024-01-27T08:56:21;19.83;;;11.77;;
85035;SDS011;75357;49.780;9.448;2024-01-27T08:58:50;20.27;;;12.30;;
85035;SDS011;75357;49.780;9.448;2024-01-27T09:01:21;21.73;;;12.90;;
85035;SDS011;75357;49.780;9.448;2024-01-27T09:03:50;21.17;;;12.33;;
85035;SDS011;75357;49.780;9.448;2024-01-27T09:06:20;23.97;;;13.40;;
85035;SDS011;75357;49.780;9.448;2024-01-27T09:08:50;19.83;;;10.90;;
85035;SDS011;75357;49.780;9.448;2024-01-27T09:11:19;16.90;;;9.03;;
85035;SDS011;75357;49.780;9.448;2024-01-27T09:13:50;14.60;;;8.10;;
85035;SDS011;75357;49.780;9.448;2024-01-27T09:16:21;18.67;;;9.03;;
85035;SDS011;75357;49.780;9.448;2024-01-27T09:18:50;17.27;;;9.30;;
85035;SDS011;75357;49.780;9.448;2024-01-27T09:21:20;18.77;;;9.43;;
85035;SDS011;75357;49.780;9.448;2024-01-27T09:23:55;23.07;;;13.17;;
85035;SDS011;75357;49.780;9.448;2024-01-27T09:26:24;21.17;;;12.47;;
85035;SDS011;75357;49.780;9.448;2024-01-27T09:28:53;18.00;;;10.60;;
85035;SDS011;75357;49.780;9.448;2024-01-27T09:31:23;19.87;;;10.70;;
85035;SDS011;75357;49.780;9.448;2024-01-27T09:33:53;20.17;;;11.17;;
85035;SDS011;75357;49.780;9.448;2024-01-27T09:36:22;21.73;;;11.73;;
85035;SDS011;75357;49.780;9.448;2024-01-27T09:38:53;27.83;;;15.63;;
85035;SDS011;75357;49.780;9.448;2024-01-27T09:41:22;19.73;;;11.77;;
85035;SDS011;75357;49.780;9.448;2024-01-27T09:43:51;20.67;;;11.83;;
85035;SDS011;75357;49.780;9.448;2024-01-27T09:46:25;15.63;;;9.60;;
85035;SDS011;75357;49.780;9.448;2024-01-27T09:48:54;15.27;;;8.40;;
85035;SDS011;75357;49.780;9.448;2024-01-27T09:51:24;16.40;;;9.27;;
85035;SDS011;75357;49.780;9.448;2024-01-27T09:53:52;17.10;;;10.87;;
85035;SDS011;75357;49.780;9.448;2024-01-27T09:56:21;22.93;;;11.10;;
85035;SDS011;75357;49.780;9.448;2024-01-27T09:58:51;21.17;;;11.30;;
85035;SDS011;75357;49.780;9.448;2024-01-27T10:01:22;16.63;;;10.90;;
85035;SDS011;75357;49.780;9.448;2024-01-27T10:03:55;19.57;;;10.23;;
85035;SDS011;75357;49.780;9.448;2024-01-27T10:06:25;15.17;;;9.30;;
85035;SDS011;75357;49.780;9.448;2024-01-27T10:08:54;15.17;;;8.53;;
85035;SDS011;75357;49.780;9.448;2024-01-27T10:11:24;14.10;;;6.90;;
85035;SDS011;75357;49.780;9.448;2024-01-27T10:13:54;14.50;;;7.07;;
85035;SDS011;75357;49.780;9.448;2024-01-27T10:16:27;11.93;;;5.37;;
85035;SDS011;75357;49.780;9.448;2024-01-27T10:18:59;12.13;;;5.10;;
85035;SDS011;75357;49.780;9.448;2024-01-27T10:21:30;15.73;;;5.77;;
85035;SDS011;75357;49.780;9.448;2024-01-27T10:23:59;13.73;;;7.10;;
85035;SDS011;75357;49.780;9.448;2024-01-27T10:26:33;13.57;;;6.63;;
85035;SDS011;75357;49.780;9.448;2024-01-27T10:29:02;12.97;;;6.53;;
85035;SDS011;75357;49.780;9.448;2024-01-27T10:31:32;15.53;;;6.70;;
85035;SDS011;75357;49.780;9.448;2024-01-27T10:34:01;12.93;;;5.93;;
85035;SDS011;75357;49.780;9.448;2024-01-27T10:36:38;13.43;;;5.77;;
85035;SDS011;75357;49.780;9.448;2024-01-27T10:39:17;9.27;;;5.50;;
85035;SDS011;75357;49.780;9.448;2024-01-27T10:41:48;15.87;;;5.70;;
85035;SDS011;75357;49.780;9.448;2024-01-27T10:44:18;12.73;;;5.50;;
85035;SDS011;75357;49.780;9.448;2024-01-27T10:46:50;13.47;;;4.90;;
85035;SDS011;75357;49.780;9.448;2024-01-27T10:49:18;13.50;;;5.30;;
85035;SDS011;75357;49.780;9.448;2024-01-27T10:51:50;14.07;;;5.77;;
85035;SDS011;75357;49.780;9.448;2024-01-27T10:54:23;16.73;;;6.57;;
85035;SDS011;75357;49.780;9.448;2024-01-27T10:56:54;15.20;;;6.33;;
85035;SDS011;75357;49.780;9.448;2024-01-27T10:59:26;29.13;;;17.03;;
85035;SDS011;75357;49.780;9.448;2024-01-27T11:01:57;18.83;;;9.10;;
85035;SDS011;75357;49.780;9.448;2024-01-27T11:04:26;17.53;;;8.17;;
85035;SDS011;75357;49.780;9.448;2024-01-27T11:06:59;18.10;;;9.03;;
85035;SDS011;75357;49.780;9.448;2024-01-27T11:09:29;18.10;;;6.10;;
85035;SDS011;75357;49.780;9.448;2024-01-27T11:11:59;14.60;;;5.83;;
85035;SDS011;75357;49.780;9.448;2024-01-27T11:14:30;10.33;;;3.40;;
85035;SDS011;75357;49.780;9.448;2024-01-27T11:17:02;15.37;;;4.47;;
85035;SDS011;75357;49.780;9.448;2024-01-27T11:19:32;9.93;;;3.97;;
85035;SDS011;75357;49.780;9.448;2024-01-27T11:22:01;11.37;;;3.43;;
85035;SDS011;75357;49.780;9.448;2024-01-27T11:24:31;10.47;;;3.00;;
85035;SDS011;75357;49.780;9.448;2024-01-27T11:27:00;8.67;;;2.77;;
85035;SDS011;75357;49.780;9.448;2024-01-27T11:29:30;8.00;;;2.60;;
85035;SDS011;75357;49.780;9.448;2024-01-27T11:32:03;11.43;;;3.00;;
85035;SDS011;75357;49.780;9.448;2024-01-27T11:34:42;11.50;;;2.97;;
85035;SDS011;75357;49.780;9.448;2024-01-27T11:37:12;14.90;;;6.10;;
85035;SDS011;75357;49.780;9.448;2024-01-27T11:39:42;15.33;;;5.03;;
85035;SDS011;75357;49.780;9.448;2024-01-27T11:42:11;8.03;;;2.60;;
85035;SDS011;75357;49.780;9.448;2024-01-27T11:44:41;9.07;;;3.53;;
85035;SDS011;75357;49.780;9.448;2024-01-27T11:47:15;8.30;;;2.33;;
85035;SDS011;75357;49.780;9.448;2024-01-27T11:49:50;9.47;;;2.77;;
85035;SDS011;75357;49.780;9.448;2024-01-27T11:52:21;8.60;;;2.03;;
85035;SDS011;75357;49.780;9.448;2024-01-27T11:54:53;11.00;;;2.60;;
85035;SDS011;75357;49.780;9.448;2024-01-27T11:57:23;5.70;;;1.90;;
85035;SDS011;75357;49.780;9.448;2024-01-27T11:59:52;10.77;;;2.20;;
85035;SDS011;75357;49.780;9.448;2024-01-27T12:02:24;9.97;;;2.30;;
85035;SDS011;75357;49.780;9.448;2024-01-27T12:04:53;8.37;;;2.30;;
85035;SDS011;75357;49.780;9.448;2024-01-27T12:07:23;7.23;;;2.07;;
85035;SDS011;75357;49.780;9.448;2024-01-27T12:09:54;7.87;;;2.20;;
85035;SDS011;75357;49.780;9.448;2024-01-27T12:12:26;12.70;;;2.30;;
85035;SDS011;75357;49.780;9.448;2024-01-27T12:14:55;8.13;;;2.43;;
85035;SDS011;75357;49.780;9.448;2024-01-27T12:17:27;14.77;;;2.70;;
85035;SDS011;75357;49.780;9.448;2024-01-27T12:19:56;7.90;;;2.20;;
85035;SDS011;75357;49.780;9.448;2024-01-27T12:22:26;13.50;;;2.80;;
85035;SDS011;75357;49.780;9.448;2024-01-27T12:24:56;9.43;;;2.20;;
85035;SDS011;75357;49.780;9.448;2024-01-27T12:27:36;5.93;;;2.20;;
85035;SDS011;75357;49.780;9.448;2024-01-27T12:30:05;10.17;;;2.40;;
85035;SDS011;75357;49.780;9.448;2024-01-27T12:32:36;11.07;;;2.17;;
85035;SDS011;75357;49.780;9.448;2024-01-27T12:35:06;6.07;;;2.20;;
85035;SDS011;75357;49.780;9.448;2024-01-27T12:37:36;7.33;;;1.90;;
85035;SDS011;75357;49.780;9.448;2024-01-27T12:40:15;7.80;;;2.30;;
85035;SDS011;75357;49.780;9.448;2024-01-27T12:42:50;6.37;;;1.77;;
85035;SDS011;75357;49.780;9.448;2024-01-27T12:45:18;8.97;;;2.23;;
85035;SDS011;75357;49.780;9.448;2024-01-27T12:47:49;8.30;;;2.30;;
85035;SDS011;75357;49.780;9.448;2024-01-27T12:50:19;4.70;;;1.90;;
85035;SDS011;75357;49.780;9.448;2024-01-27T12:52:48;8.57;;;2.17;;
85035;SDS011;75357;49.780;9.448;2024-01-27T12:55:17;8.30;;;2.63;;
85035;SDS011;75357;49.780;9.448;2024-01-27T12:57:47;9.27;;;2.13;;
85035;SDS011;75357;49.780;9.448;2024-01-27T13:00:16;6.67;;;1.80;;
85035;SDS011;75357;49.780;9.448;2024-01-27T13:02:46;7.10;;;1.70;;
85035;SDS011;75357;49.780;9.448;2024-01-27T13:05:16;10.03;;;1.90;;
85035;SDS011;75357;49.780;9.448;2024-01-27T13:07:45;9.07;;;2.30;;
85035;SDS011;75357;49.780;9.448;2024-01-27T13:10:15;6.00;;;1.97;;
85035;SDS011;75357;49.780;9.448;2024-01-27T13:12:43;9.00;;;2.43;;
85035;SDS011;75357;49.780;9.448;2024-01-27T13:15:12;6.17;;;1.87;;
85035;SDS011;75357;49.780;9.448;2024-01-27T13:17:41;7.37;;;2.00;;
85035;SDS011;75357;49.780;9.448;2024-01-27T13:20:11;9.50;;;2.67;;
85035;SDS011;75357;49.780;9.448;2024-01-27T13:22:44;7.23;;;2.40;;
85035;SDS011;75357;49.780;9.448;2024-01-27T13:25:13;7.00;;;2.47;;
85035;SDS011;75357;49.780;9.448;2024-01-27T13:27:42;10.30;;;2.43;;
85035;SDS011;75357;49.780;9.448;2024-01-27T13:30:13;9.33;;;2.30;;
85035;SDS011;75357;49.780;9.448;2024-01-27T13:32:44;8.43;;;2.10;;
85035;SDS011;75357;49.780;9.448;2024-01-27T13:35:13;6.27;;;1.90;;
85035;SDS011;75357;49.780;9.448;2024-01-27T13:37:44;10.10;;;2.00;;
85035;SDS011;75357;49.780;9.448;2024-01-27T13:40:15;7.60;;;2.30;;
85035;SDS011;75357;49.780;9.448;2024-01-27T13:42:44;6.77;;;2.10;;
85035;SDS011;75357;49.780;9.448;2024-01-27T13:45:13;8.03;;;2.30;;
85035;SDS011;75357;49.780;9.448;2024-01-27T13:47:42;10.47;;;2.30;;
85035;SDS011;75357;49.780;9.448;2024-01-27T13:50:12;6.27;;;2.30;;
85035;SDS011;75357;49.780;9.448;2024-01-27T13:52:43;8.90;;;2.20;;
85035;SDS011;75357;49.780;9.448;2024-01-27T13:55:15;7.83;;;2.20;;
85035;SDS011;75357;49.780;9.448;2024-01-27T13:57:44;7.03;;;2.20;;
85035;SDS011;75357;49.780;9.448;2024-01-27T14:00:13;8.03;;;2.23;;
85035;SDS011;75357;49.780;9.448;2024-01-27T14:02:42;6.67;;;2.50;;
85035;SDS011;75357;49.780;9.448;2024-01-27T14:05:11;9.20;;;2.30;;
85035;SDS011;75357;49.780;9.448;2024-01-27T14:07:44;8.30;;;2.17;;
85035;SDS011;75357;49.780;9.448;2024-01-27T14:10:13;9.73;;;2.40;;
85035;SDS011;75357;49.780;9.448;2024-01-27T14:12:44;4.37;;;2.00;;
85035;SDS011;75357;49.780;9.448;2024-01-27T14:15:12;9.00;;;2.43;;
85035;SDS011;75357;49.780;9.448;2024-01-27T14:17:41;8.60;;;2.67;;
85035;SDS011;75357;49.780;9.448;2024-01-27T14:20:11;7.90;;;2.80;;
85035;SDS011;75357;49.780;9.448;2024-01-27T14:22:44;9.80;;;2.93;;
85035;SDS011;75357;49.780;9.448;2024-01-27T14:25:14;7.43;;;3.33;;
85035;SDS011;75357;49.780;9.448;2024-01-27T14:27:42;9.33;;;2.97;;
85035;SDS011;75357;49.780;9.448;2024-01-27T14:30:12;11.00;;;3.17;;
85035;SDS011;75357;49.780;9.448;2024-01-27T14:32:43;8.23;;;2.77;;
85035;SDS011;75357;49.780;9.448;2024-01-27T14:35:11;10.63;;;3.07;;
85035;SDS011;75357;49.780;9.448;2024-01-27T14:37:42;7.27;;;2.60;;
85035;SDS011;75357;49.780;9.448;2024-01-27T14:40:13;9.17;;;3.40;;
85035;SDS011;75357;49.780;9.448;2024-01-27T14:42:41;6.97;;;2.77;;
85035;SDS011;75357;49.780;9.448;2024-01-27T14:45:13;9.83;;;3.00;;
85035;SDS011;75357;49.780;9.448;2024-01-27T14:47:42;9.83;;;3.30;;
85035;SDS011;75357;49.780;9.448;2024-01-27T14:50:11;9.87;;;3.83;;
85035;SDS011;75357;49.780;9.448;2024-01-27T14:52:40;9.87;;;3.30;;